createdAt,value
2023-03-08T00:00:57.343Z,93481.00
2023-03-08T00:04:57.529Z,93482.00
2023-03-08T00:08:57.577Z,93490.00
2023-03-08T00:12:57.766Z,93488.00
2023-03-08T00:16:57.963Z,93494.00
2023-03-08T00:20:58.082Z,93504.00
2023-03-08T00:24:58.220Z,93508.00
2023-03-08T00:28:58.413Z,93528.00
2023-03-08T00:32:58.531Z,93526.00
2023-03-08T00:36:58.763Z,93535.00
2023-03-08T00:40:58.959Z,93529.00
2023-03-08T00:44:59.078Z,93526.00
2023-03-08T00:48:59.250Z,93526.00
2023-03-08T00:52:59.483Z,93531.00
2023-03-08T00:56:59.630Z,93537.00
2023-03-08T01:00:59.962Z,93543.00
2023-03-08T01:05:00.046Z,93539.00
2023-03-08T01:09:00.281Z,93547.00
2023-03-08T01:13:00.434Z,93547.00
2023-03-08T01:17:00.668Z,93547.00
2023-03-08T01:21:00.868Z,93547.00
2023-03-08T01:25:01.063Z,93537.00
2023-03-08T01:29:01.272Z,93533.00
2023-03-08T01:33:01.466Z,93537.00
2023-03-08T01:37:01.687Z,93539.00
2023-03-08T01:41:01.925Z,93543.00
2023-03-08T01:45:01.885Z,93551.00
2023-03-08T01:49:01.872Z,93551.00
2023-03-08T01:53:01.832Z,93551.00
2023-03-08T01:57:01.754Z,93555.00
2023-03-08T02:01:01.813Z,93559.00
2023-03-08T02:05:01.693Z,93557.00
2023-03-08T02:09:01.630Z,93557.00
2023-03-08T02:13:01.593Z,93561.00
2023-03-08T02:17:01.550Z,93565.00
2023-03-08T02:21:01.558Z,93567.00
2023-03-08T02:25:01.477Z,93567.00
2023-03-08T02:29:01.499Z,93561.00
2023-03-08T02:33:01.468Z,93563.00
2023-03-08T02:37:01.419Z,93563.00
2023-03-08T02:41:01.416Z,93563.00
2023-03-08T02:45:01.351Z,93557.00
2023-03-08T02:49:01.325Z,93549.00
2023-03-08T02:53:01.297Z,93553.00
2023-03-08T02:57:01.205Z,93543.00
2023-03-08T03:01:01.223Z,93539.00
2023-03-08T03:05:01.429Z,93533.00
2023-03-08T03:09:01.438Z,93537.00
2023-03-08T03:13:01.663Z,93537.00
2023-03-08T03:17:01.870Z,93537.00
2023-03-08T03:21:02.317Z,93545.00
2023-03-08T03:25:01.780Z,93533.00
2023-03-08T03:29:01.752Z,93535.00
2023-03-08T03:33:01.696Z,93533.00
2023-03-08T03:37:01.647Z,93531.00
2023-03-08T03:41:01.646Z,93528.00
2023-03-08T03:45:01.630Z,93522.00
2023-03-08T03:49:01.567Z,93524.00
2023-03-08T03:53:01.630Z,93518.00
2023-03-08T03:57:01.874Z,93518.00
2023-03-08T04:01:01.819Z,93518.00
2023-03-08T04:05:01.789Z,93518.00
2023-03-08T04:09:01.763Z,93522.00
2023-03-08T04:13:01.693Z,93520.00
2023-03-08T04:17:01.712Z,93522.00
2023-03-08T04:21:01.615Z,93524.00
2023-03-08T04:25:01.634Z,93518.00
2023-03-08T04:29:01.571Z,93518.00
2023-03-08T04:33:01.553Z,93516.00
2023-03-08T04:37:01.516Z,93512.00
2023-03-08T04:41:01.590Z,93504.00
2023-03-08T04:45:01.430Z,93508.00
2023-03-08T04:49:01.394Z,93510.00
2023-03-08T04:53:01.354Z,93506.00
2023-03-08T04:57:01.352Z,93498.00
2023-03-08T05:01:01.354Z,93498.00
2023-03-08T05:05:01.335Z,93524.00
2023-03-08T05:09:01.211Z,93518.00
2023-03-08T05:13:01.227Z,93506.00
2023-03-08T05:17:02.569Z,93512.00
2023-03-08T05:21:01.086Z,93508.00
2023-03-08T05:25:01.091Z,93494.00
2023-03-08T05:29:01.022Z,93488.00
2023-03-08T05:33:01.008Z,93461.00
2023-03-08T05:37:01.035Z,93463.00
2023-03-08T05:41:00.917Z,93461.00
2023-03-08T05:45:00.914Z,93465.00
2023-03-08T05:49:00.868Z,93473.00
2023-03-08T05:53:00.836Z,93475.00
2023-03-08T05:57:00.769Z,93471.00
2023-03-08T06:01:00.728Z,93439.00
2023-03-08T06:05:00.673Z,93447.00
2023-03-08T06:09:00.678Z,93455.00
2023-03-08T06:13:00.679Z,93451.00
2023-03-08T06:17:00.751Z,93457.00
2023-03-08T06:21:00.552Z,93457.00
2023-03-08T06:25:00.529Z,93455.00
2023-03-08T06:29:00.530Z,93479.00
2023-03-08T06:33:00.635Z,93477.00
2023-03-08T06:37:00.718Z,93477.00
2023-03-08T06:41:00.794Z,93469.00
2023-03-08T06:45:00.955Z,93465.00
2023-03-08T06:49:01.140Z,93502.00
2023-03-08T06:53:01.184Z,93498.00
2023-03-08T06:57:01.319Z,93492.00
2023-03-08T07:01:01.490Z,93498.00
2023-03-08T07:05:01.659Z,93508.00
2023-03-08T07:09:01.782Z,93506.00
2023-03-08T07:13:02.814Z,93512.00
2023-03-08T07:17:02.884Z,93504.00
2023-03-08T07:21:01.988Z,93508.00
2023-03-08T07:25:02.075Z,93512.00
2023-03-08T07:29:02.034Z,93506.00
2023-03-08T07:33:02.040Z,93494.00
2023-03-08T07:37:02.048Z,93498.00
2023-03-08T07:41:01.980Z,93467.00
2023-03-08T07:45:01.949Z,93496.00
2023-03-08T07:49:01.899Z,93490.00
2023-03-08T07:53:01.851Z,93496.00
2023-03-08T07:57:01.772Z,93510.00
2023-03-08T08:01:01.760Z,93492.00
2023-03-08T08:05:01.766Z,93482.00
2023-03-08T08:09:01.706Z,93482.00
2023-03-08T08:13:01.733Z,93473.00
2023-03-08T08:17:01.700Z,93475.00
2023-03-08T08:21:01.570Z,93457.00
2023-03-08T08:25:01.740Z,93420.00
2023-03-08T08:29:01.932Z,93408.00
2023-03-08T08:33:01.908Z,93400.00
2023-03-08T08:37:01.936Z,93396.00
2023-03-08T08:41:01.852Z,93406.00
2023-03-08T08:45:01.859Z,93400.00
2023-03-08T08:49:01.786Z,93383.00
2023-03-08T08:53:04.386Z,93365.00
2023-03-08T08:57:01.701Z,93363.00
2023-03-08T09:01:01.684Z,93316.00
2023-03-08T09:05:01.708Z,93320.00
2023-03-08T09:09:01.585Z,93312.00
2023-03-08T09:13:01.610Z,93306.00
2023-03-08T09:17:01.535Z,93306.00
2023-03-08T09:21:01.511Z,93300.00
2023-03-08T09:25:01.447Z,93320.00
2023-03-08T09:29:01.420Z,93261.00
2023-03-08T09:33:01.381Z,93261.00
2023-03-08T09:37:02.686Z,93245.00
2023-03-08T09:41:01.359Z,93228.00
2023-03-08T09:45:01.326Z,93247.00
2023-03-08T09:49:01.270Z,93249.00
2023-03-08T09:53:01.262Z,93238.00
2023-03-08T09:57:01.178Z,93245.00
2023-03-08T10:01:01.387Z,93234.00
2023-03-08T10:05:12.312Z,93243.00
2023-03-08T10:09:02.425Z,93224.00
2023-03-08T10:13:01.338Z,93220.00
2023-03-08T10:17:01.375Z,93230.00
2023-03-08T10:21:01.277Z,93222.00
2023-03-08T10:25:01.223Z,93224.00
2023-03-08T10:29:01.391Z,93226.00
2023-03-08T10:33:01.264Z,93232.00
2023-03-08T10:37:01.266Z,93204.00
2023-03-08T10:41:01.193Z,93191.00
2023-03-08T10:45:02.990Z,93212.00
2023-03-08T10:49:01.128Z,93187.00
2023-03-08T10:53:01.127Z,93214.00
2023-03-08T10:57:01.370Z,93198.00
2023-03-08T11:01:01.247Z,93210.00
2023-03-08T11:05:01.606Z,93228.00
2023-03-08T11:09:01.501Z,93212.00
2023-03-08T11:13:01.133Z,93206.00
2023-03-08T11:17:01.110Z,93204.00
2023-03-08T11:21:01.062Z,93222.00
2023-03-08T11:25:00.997Z,93230.00
2023-03-08T11:29:01.169Z,93230.00
2023-03-08T11:33:01.208Z,93228.00
2023-03-08T11:37:00.901Z,93249.00
2023-03-08T11:41:00.909Z,93240.00
2023-03-08T11:45:00.996Z,93251.00
2023-03-08T11:49:01.186Z,93234.00
2023-03-08T11:53:01.234Z,93220.00
2023-03-08T11:57:01.340Z,93194.00
2023-03-08T12:01:01.432Z,93224.00
2023-03-08T12:05:01.538Z,93214.00
2023-03-08T12:09:01.625Z,93212.00
2023-03-08T12:13:01.581Z,93204.00
2023-03-08T12:17:01.891Z,93196.00
2023-03-08T12:21:01.502Z,93194.00
2023-03-08T12:25:01.567Z,93187.00
2023-03-08T12:29:01.703Z,93155.00
2023-03-08T12:33:02.037Z,93181.00
2023-03-08T12:37:01.942Z,93179.00
2023-03-08T12:41:02.066Z,93175.00
2023-03-08T12:45:02.196Z,93183.00
2023-03-08T12:49:02.356Z,93179.00
2023-03-08T12:53:02.306Z,93181.00
2023-03-08T12:57:02.376Z,93185.00
2023-03-08T13:01:02.574Z,93185.00
2023-03-08T13:05:02.651Z,93179.00
2023-03-08T13:09:02.702Z,93204.00
2023-03-08T13:13:02.879Z,93206.00
2023-03-08T13:17:03.032Z,93194.00
2023-03-08T13:21:03.098Z,93194.00
2023-03-08T13:25:03.199Z,93200.00
2023-03-08T13:29:03.234Z,93216.00
2023-03-08T13:33:03.263Z,93214.00
2023-03-08T13:37:03.406Z,93212.00
2023-03-08T13:41:03.614Z,93214.00
2023-03-08T13:45:03.618Z,93224.00
2023-03-08T13:49:03.577Z,93230.00
2023-03-08T13:53:03.539Z,93240.00
2023-03-08T13:57:04.001Z,93228.00
2023-03-08T14:01:03.558Z,93232.00
2023-03-08T14:05:03.516Z,93232.00
2023-03-08T14:09:03.468Z,93245.00
2023-03-08T14:13:03.341Z,93255.00
2023-03-08T14:17:03.394Z,93245.00
2023-03-08T14:21:03.298Z,93226.00
2023-03-08T14:25:03.439Z,93220.00
2023-03-08T14:29:03.626Z,93208.00
2023-03-08T14:33:03.775Z,93210.00
2023-03-08T14:37:03.945Z,93198.00
2023-03-08T14:41:04.140Z,93198.00
2023-03-08T14:45:04.301Z,93189.00
2023-03-08T14:49:04.475Z,93177.00
2023-03-08T14:53:04.662Z,93175.00
2023-03-08T14:57:04.660Z,93189.00
2023-03-08T15:01:04.592Z,93134.00
2023-03-08T15:05:04.529Z,93165.00
2023-03-08T15:09:04.508Z,93132.00
2023-03-08T15:13:04.498Z,93132.00
2023-03-08T15:17:04.443Z,93120.00
2023-03-08T15:21:04.411Z,93108.00
2023-03-08T15:25:04.390Z,93050.00
2023-03-08T15:29:04.459Z,93054.00
2023-03-08T15:33:04.378Z,93052.00
2023-03-08T15:37:04.282Z,93042.00
2023-03-08T15:41:05.296Z,93038.00
2023-03-08T15:45:04.223Z,93042.00
2023-03-08T15:49:04.192Z,93030.00
2023-03-08T15:53:04.164Z,93042.00
2023-03-08T15:57:04.071Z,93034.00
2023-03-08T16:01:04.078Z,93012.00
2023-03-08T16:05:04.128Z,93010.00
2023-03-08T16:09:04.127Z,93012.00
2023-03-08T16:13:04.212Z,93040.00
2023-03-08T16:17:04.246Z,93036.00
2023-03-08T16:21:04.280Z,93024.00
2023-03-08T16:25:04.438Z,93008.00
2023-03-08T16:29:04.318Z,92989.00
2023-03-08T16:33:04.430Z,92993.00
2023-03-08T16:37:04.521Z,93003.00
2023-03-08T16:41:13.583Z,92991.00
2023-03-08T16:45:05.548Z,92987.00
2023-03-08T16:49:04.568Z,92971.00
2023-03-08T16:53:04.536Z,92950.00
2023-03-08T16:57:17.805Z,92942.00
2023-03-08T17:01:05.496Z,92948.00
2023-03-08T17:05:04.425Z,92942.00
2023-03-08T17:09:04.382Z,92942.00
2023-03-08T17:13:04.284Z,92954.00
2023-03-08T17:17:04.342Z,92948.00
2023-03-08T17:21:04.410Z,92958.00
2023-03-08T17:25:04.541Z,92954.00
2023-03-08T17:29:04.615Z,92938.00
2023-03-08T17:33:05.069Z,92946.00
2023-03-08T17:37:04.881Z,92969.00
2023-03-08T17:41:05.062Z,92987.00
2023-03-08T17:45:05.133Z,92989.00
2023-03-08T17:49:05.300Z,93005.00
2023-03-08T17:53:05.496Z,93010.00
2023-03-08T17:57:05.640Z,92997.00
2023-03-08T18:01:05.818Z,93005.00
2023-03-08T18:05:05.956Z,93020.00
2023-03-08T18:09:06.137Z,93032.00
2023-03-08T18:13:06.302Z,93055.00
2023-03-08T18:17:06.444Z,93061.00
2023-03-08T18:21:13.507Z,93083.00
2023-03-08T18:25:07.659Z,93106.00
2023-03-08T18:29:06.596Z,93114.00
2023-03-08T18:33:06.698Z,93130.00
2023-03-08T18:37:06.721Z,93138.00
2023-03-08T18:41:06.698Z,93165.00
2023-03-08T18:45:06.589Z,93163.00
2023-03-08T18:49:06.602Z,93136.00
2023-03-08T18:53:06.634Z,93138.00
2023-03-08T18:57:06.505Z,93128.00
2023-03-08T19:01:06.504Z,93144.00
2023-03-08T19:05:06.424Z,93153.00
2023-03-08T19:09:06.414Z,93177.00
2023-03-08T19:13:06.492Z,93193.00
2023-03-08T19:17:06.482Z,93210.00
2023-03-08T19:21:06.466Z,93226.00
2023-03-08T19:25:06.427Z,93253.00
2023-03-08T19:29:06.364Z,93243.00
2023-03-08T19:33:06.342Z,93253.00
2023-03-08T19:37:06.321Z,93265.00
2023-03-08T19:41:06.231Z,93236.00
2023-03-08T19:45:06.208Z,93230.00
2023-03-08T19:49:06.195Z,93234.00
2023-03-08T19:53:06.178Z,93236.00
2023-03-08T19:57:06.373Z,93236.00
2023-03-08T20:01:06.551Z,93224.00
2023-03-08T20:05:06.704Z,93163.00
2023-03-08T20:09:06.764Z,93153.00
2023-03-08T20:13:06.723Z,93149.00
2023-03-08T20:17:06.881Z,93144.00
2023-03-08T20:21:06.789Z,93134.00
2023-03-08T20:25:06.898Z,93149.00
2023-03-08T20:29:06.975Z,93151.00
2023-03-08T20:33:07.002Z,93151.00
2023-03-08T20:37:06.934Z,93157.00
2023-03-08T20:41:07.033Z,93153.00
2023-03-08T20:45:07.053Z,93155.00
2023-03-08T20:49:07.243Z,93157.00
2023-03-08T20:53:07.370Z,93169.00
2023-03-08T20:57:07.438Z,93161.00
2023-03-08T21:01:07.415Z,93173.00
2023-03-08T21:05:07.585Z,93159.00
2023-03-08T21:09:07.417Z,93177.00
2023-03-08T21:13:07.448Z,93169.00
2023-03-08T21:17:07.472Z,93163.00
2023-03-08T21:21:07.491Z,93142.00
2023-03-08T21:25:07.553Z,93136.00
2023-03-08T21:29:07.528Z,93138.00
2023-03-08T21:33:07.523Z,93142.00
2023-03-08T21:37:08.149Z,93185.00
2023-03-08T21:41:07.626Z,93163.00
2023-03-08T21:45:07.652Z,93171.00
2023-03-08T21:49:07.678Z,93171.00
2023-03-08T21:53:07.756Z,93171.00
2023-03-08T21:57:07.703Z,93151.00
2023-03-08T22:01:07.749Z,93149.00
2023-03-08T22:05:07.789Z,93149.00
2023-03-08T22:09:07.816Z,93136.00
2023-03-08T22:13:07.877Z,93130.00
2023-03-08T22:17:07.907Z,93130.00
2023-03-08T22:21:07.934Z,93124.00
2023-03-08T22:25:07.979Z,93091.00
2023-03-08T22:29:08.005Z,93077.00
2023-03-08T22:33:08.059Z,93087.00
2023-03-08T22:37:08.134Z,93100.00
2023-03-08T22:41:08.177Z,93081.00
2023-03-08T22:45:08.247Z,93089.00
2023-03-08T22:49:08.296Z,93093.00
2023-03-08T22:53:08.382Z,93055.00
2023-03-08T22:57:08.419Z,93083.00
2023-03-08T23:01:08.510Z,93059.00
2023-03-08T23:05:08.539Z,93055.00
2023-03-08T23:09:08.675Z,93054.00
2023-03-08T23:13:11.052Z,93065.00
2023-03-08T23:17:08.684Z,93073.00
2023-03-08T23:21:08.653Z,93063.00
2023-03-08T23:25:08.569Z,93104.00
2023-03-08T23:29:08.561Z,93083.00
2023-03-08T23:33:08.526Z,93110.00
2023-03-08T23:37:08.513Z,93108.00
2023-03-08T23:41:08.468Z,93114.00
2023-03-08T23:45:08.402Z,93071.00
2023-03-08T23:49:08.358Z,93130.00
2023-03-08T23:53:08.480Z,93091.00
2023-03-08T23:57:08.274Z,93110.00
